Terminal Aerodrome Forecast
Issued by NWS

Home | Current Version | Previous Version | Text Only | Print | Product List | Glossary On
Versions: 1 2 3 4 5 6 7 8 9 10 11 12 13 14
000
FTUS46 KSEW 041741
TAFOLM
TAF
KOLM 041741Z 0418/0518 26008KT P6SM SCT050
     FM050500 20005KT P6SM BKN050 OVC100
     FM050900 18006KT 5SM -SHRASN BKN015 OVC050
     FM051300 18005KT 3SM -SHRASN BKN007 OVC015=

USA.gov is the U.S. government's official web portal to all federal, state and local government web resources and services.